Time;durP1;ratioP1;P1;durP2;ratioP2;P2;SDS_P1;SDS_P2;PMS_P1;PMS_P2;Temp;Humidity;BMP_temperature;BMP_pressure;BME280_temperature;BME280_humidity;BME280_pressure;Samples;Min_cycle;Max_cycle;Signal;HPM_P1;HPM_P2
2023/12/17 00:01:47;;;;;;;7.97;4.18;;;;;;;;;;5124560;27;20448;-66
2023/12/17 00:04:14;;;;;;;10.40;4.03;;;;;;;;;;5126464;27;20035;-66
2023/12/17 00:06:41;;;;;;;13.93;5.03;;;;;;;;;;5124614;27;20436;-65
2023/12/17 00:09:08;;;;;;;7.38;5.03;;;;;;;;;;5125183;27;20059;-66
2023/12/17 00:11:41;;;;;;;6.20;4.20;;;;;;;;;;5125068;27;20131;-66
2023/12/17 00:14:08;;;;;;;10.00;5.40;;;;;;;;;;5105895;27;20394;-66
2023/12/17 00:16:34;;;;;;;6.75;4.43;;;;;;;;;;5088548;27;20042;-66
2023/12/17 00:19:00;;;;;;;6.88;4.32;;;;;;;;;;5124228;27;20958;-65
2023/12/17 00:21:27;;;;;;;7.10;4.00;;;;;;;;;;5119056;27;20435;-66
2023/12/17 00:23:53;;;;;;;7.20;4.35;;;;;;;;;;5124044;27;20196;-66
2023/12/17 00:26:19;;;;;;;6.13;4.00;;;;;;;;;;5105223;27;20464;-66
2023/12/17 00:28:45;;;;;;;7.13;4.50;;;;;;;;;;5124108;27;20039;-66
2023/12/17 00:31:11;;;;;;;6.57;4.50;;;;;;;;;;5124569;27;20541;-66
2023/12/17 00:33:37;;;;;;;8.48;3.97;;;;;;;;;;5125361;27;20046;-67
2023/12/17 00:36:03;;;;;;;7.15;4.40;;;;;;;;;;5124309;27;20048;-67
2023/12/17 00:38:29;;;;;;;8.10;4.50;;;;;;;;;;5124771;27;20043;-65
2023/12/17 00:40:55;;;;;;;6.75;4.55;;;;;;;;;;5124193;27;20084;-66
2023/12/17 00:43:21;;;;;;;8.07;4.57;;;;;;;;;;5124175;27;20034;-66
2023/12/17 00:45:47;;;;;;;7.30;3.45;;;;;;;;;;5124446;27;21074;-66
2023/12/17 00:48:14;;;;;;;8.48;4.82;;;;;;;;;;5124749;27;20050;-66
2023/12/17 00:50:40;;;;;;;6.07;3.58;;;;;;;;;;5123735;27;20126;-66
2023/12/17 00:53:06;;;;;;;5.43;3.95;;;;;;;;;;5123604;27;20036;-66
2023/12/17 00:55:32;;;;;;;6.35;4.50;;;;;;;;;;5124791;27;20402;-66
2023/12/17 00:57:58;;;;;;;6.55;4.32;;;;;;;;;;5123663;27;20039;-66
2023/12/17 01:00:24;;;;;;;5.68;4.10;;;;;;;;;;5124376;27;20133;-67
2023/12/17 01:02:50;;;;;;;10.15;4.00;;;;;;;;;;5124121;27;20035;-66
2023/12/17 01:05:16;;;;;;;7.50;3.88;;;;;;;;;;5124162;27;20092;-66
2023/12/17 01:07:42;;;;;;;7.00;4.20;;;;;;;;;;5103172;27;20058;-67
2023/12/17 01:10:09;;;;;;;6.43;3.90;;;;;;;;;;5123135;27;20071;-66
2023/12/17 01:12:35;;;;;;;5.88;3.60;;;;;;;;;;5123612;27;20045;-66
2023/12/17 01:15:01;;;;;;;12.35;4.63;;;;;;;;;;5123579;27;20039;-65
2023/12/17 01:17:27;;;;;;;9.65;4.20;;;;;;;;;;5121593;27;20115;-65
2023/12/17 01:19:53;;;;;;;8.20;3.75;;;;;;;;;;5123720;27;20510;-66
2023/12/17 01:22:19;;;;;;;5.47;3.80;;;;;;;;;;5122306;27;20126;-65
2023/12/17 01:24:49;;;;;;;8.07;5.15;;;;;;;;;;5121631;27;20503;-66
2023/12/17 01:27:15;;;;;;;7.68;3.50;;;;;;;;;;5122895;27;20089;-68
2023/12/17 01:29:41;;;;;;;7.70;3.78;;;;;;;;;;5123375;27;20122;-66
2023/12/17 01:32:07;;;;;;;11.77;5.50;;;;;;;;;;5122931;27;20043;-66
2023/12/17 01:34:33;;;;;;;5.60;3.97;;;;;;;;;;5123698;27;20068;-65
2023/12/17 01:36:59;;;;;;;7.43;3.90;;;;;;;;;;5120361;27;20520;-66
2023/12/17 01:39:26;;;;;;;6.80;4.00;;;;;;;;;;5123268;27;20031;-65
2023/12/17 01:41:52;;;;;;;9.85;4.50;;;;;;;;;;5103971;27;20678;-65
2023/12/17 01:44:19;;;;;;;7.18;3.55;;;;;;;;;;5103941;27;20047;-66
2023/12/17 01:46:45;;;;;;;9.45;4.03;;;;;;;;;;5123403;27;20074;-65
2023/12/17 01:49:11;;;;;;;17.05;4.25;;;;;;;;;;5122957;27;20462;-66
2023/12/17 01:51:38;;;;;;;6.63;4.15;;;;;;;;;;5086155;27;20147;-66
2023/12/17 01:54:04;;;;;;;6.10;3.67;;;;;;;;;;5123318;28;20126;-65
2023/12/17 01:56:31;;;;;;;6.75;4.20;;;;;;;;;;5123973;28;20043;-65
2023/12/17 01:58:58;;;;;;;9.77;4.47;;;;;;;;;;5123110;28;20421;-66
2023/12/17 02:01:25;;;;;;;11.80;4.35;;;;;;;;;;5123846;28;20668;-66
2023/12/17 02:03:51;;;;;;;5.18;3.42;;;;;;;;;;5123727;28;20035;-66
2023/12/17 02:06:17;;;;;;;8.32;4.25;;;;;;;;;;5123471;28;20047;-66
2023/12/17 02:08:43;;;;;;;6.97;4.38;;;;;;;;;;5121932;28;20096;-66
2023/12/17 02:11:10;;;;;;;8.68;4.10;;;;;;;;;;5104527;28;20138;-66
2023/12/17 02:13:36;;;;;;;6.15;4.35;;;;;;;;;;5103824;28;20039;-65
2023/12/17 02:16:02;;;;;;;7.57;4.30;;;;;;;;;;5104802;28;20385;-65
2023/12/17 02:18:28;;;;;;;8.75;4.18;;;;;;;;;;5104336;28;20073;-65
2023/12/17 02:20:54;;;;;;;16.50;5.05;;;;;;;;;;5122302;28;20158;-66
2023/12/17 02:23:20;;;;;;;8.57;4.07;;;;;;;;;;5121734;28;20054;-66
2023/12/17 02:25:47;;;;;;;9.23;4.03;;;;;;;;;;5104116;28;20075;-66
2023/12/17 02:28:13;;;;;;;7.75;4.32;;;;;;;;;;5123022;28;20040;-66
2023/12/17 02:30:39;;;;;;;7.97;3.97;;;;;;;;;;5123296;28;20045;-66
2023/12/17 02:33:05;;;;;;;9.25;4.45;;;;;;;;;;5104239;28;20039;-65
2023/12/17 02:35:31;;;;;;;5.63;4.43;;;;;;;;;;5123388;28;20039;-65
2023/12/17 02:37:58;;;;;;;9.18;4.60;;;;;;;;;;5122289;28;20054;-66
2023/12/17 02:40:24;;;;;;;8.25;4.47;;;;;;;;;;5123570;28;20050;-66
2023/12/17 02:42:50;;;;;;;8.18;4.65;;;;;;;;;;5124871;27;20379;-64
2023/12/17 02:45:17;;;;;;;9.65;4.18;;;;;;;;;;5128792;27;20043;-65
2023/12/17 02:47:46;;;;;;;10.85;5.47;;;;;;;;;;5129166;27;20100;-65
2023/12/17 02:50:12;;;;;;;10.13;4.68;;;;;;;;;;5129081;27;20051;-65
2023/12/17 02:52:38;;;;;;;8.25;4.30;;;;;;;;;;5126258;27;20039;-65
2023/12/17 02:55:05;;;;;;;10.43;4.60;;;;;;;;;;5127318;27;20108;-66
2023/12/17 02:57:31;;;;;;;7.65;4.45;;;;;;;;;;5126715;27;20187;-65
2023/12/17 02:59:57;;;;;;;8.05;4.72;;;;;;;;;;5127166;27;20064;-65
2023/12/17 03:02:23;;;;;;;8.73;3.85;;;;;;;;;;5126225;27;20490;-68
2023/12/17 03:04:49;;;;;;;5.53;4.05;;;;;;;;;;5108410;27;20051;-66
2023/12/17 03:07:15;;;;;;;8.38;3.85;;;;;;;;;;5125381;27;20455;-66
2023/12/17 03:09:41;;;;;;;8.05;3.63;;;;;;;;;;5127375;27;20418;-66
2023/12/17 03:12:08;;;;;;;9.00;4.10;;;;;;;;;;5126679;27;20043;-66
2023/12/17 03:14:35;;;;;;;8.90;4.15;;;;;;;;;;5127041;27;20050;-66
2023/12/17 03:17:01;;;;;;;10.40;4.85;;;;;;;;;;5126302;27;20046;-66
2023/12/17 03:19:27;;;;;;;11.68;4.97;;;;;;;;;;5107397;27;20525;-66
2023/12/17 03:21:53;;;;;;;6.68;4.53;;;;;;;;;;5125156;27;20039;-65
2023/12/17 03:24:19;;;;;;;9.68;4.10;;;;;;;;;;5107593;27;20151;-66
2023/12/17 03:26:46;;;;;;;7.72;5.20;;;;;;;;;;5126079;27;20202;-66
2023/12/17 03:29:12;;;;;;;9.82;4.60;;;;;;;;;;5125606;27;20058;-66
2023/12/17 03:31:38;;;;;;;8.23;3.97;;;;;;;;;;5126438;27;20428;-66
2023/12/17 03:34:05;;;;;;;6.70;4.70;;;;;;;;;;5126077;27;20032;-66
2023/12/17 03:36:31;;;;;;;6.25;4.22;;;;;;;;;;5125447;27;20035;-65
2023/12/17 03:38:57;;;;;;;8.93;3.92;;;;;;;;;;5126154;27;20043;-66
2023/12/17 03:41:25;;;;;;;8.52;4.15;;;;;;;;;;5126055;27;20351;-66
2023/12/17 03:43:51;;;;;;;11.63;4.30;;;;;;;;;;5125845;27;20092;-66
2023/12/17 03:46:18;;;;;;;6.68;4.10;;;;;;;;;;5126094;27;20039;-65
2023/12/17 03:48:45;;;;;;;9.77;3.92;;;;;;;;;;5125750;27;20170;-66
2023/12/17 03:51:11;;;;;;;7.22;4.50;;;;;;;;;;5124923;27;20122;-67
2023/12/17 03:53:37;;;;;;;9.95;4.55;;;;;;;;;;5105911;27;20122;-66
2023/12/17 03:56:03;;;;;;;6.10;3.85;;;;;;;;;;5125670;27;20047;-66
2023/12/17 03:58:30;;;;;;;16.42;4.72;;;;;;;;;;5124347;27;20078;-66
2023/12/17 04:00:57;;;;;;;8.98;5.10;;;;;;;;;;5126041;27;20063;-66
2023/12/17 04:03:23;;;;;;;7.40;4.45;;;;;;;;;;5125221;27;20070;-67
2023/12/17 04:05:49;;;;;;;9.88;4.50;;;;;;;;;;5125744;27;20149;-64
2023/12/17 04:08:15;;;;;;;9.40;5.10;;;;;;;;;;5106274;27;20066;-65
2023/12/17 04:10:41;;;;;;;7.15;4.40;;;;;;;;;;5125560;27;20141;-65
2023/12/17 04:13:07;;;;;;;6.57;4.43;;;;;;;;;;5125419;27;20517;-65
2023/12/17 04:15:36;;;;;;;6.20;3.75;;;;;;;;;;5106693;27;20051;-66
2023/12/17 04:18:02;;;;;;;10.18;4.68;;;;;;;;;;5125182;27;20096;-65
2023/12/17 04:20:28;;;;;;;11.82;5.13;;;;;;;;;;5105954;27;20072;-65
2023/12/17 04:22:54;;;;;;;9.57;5.03;;;;;;;;;;5124593;27;20167;-65
2023/12/17 04:25:21;;;;;;;6.75;4.40;;;;;;;;;;5125875;27;20050;-65
2023/12/17 04:27:47;;;;;;;8.35;4.07;;;;;;;;;;5124391;27;20513;-65
2023/12/17 04:30:13;;;;;;;8.55;4.65;;;;;;;;;;5125543;27;20057;-63
2023/12/17 04:32:39;;;;;;;8.80;4.95;;;;;;;;;;5124239;27;20502;-65
2023/12/17 04:35:06;;;;;;;9.20;4.90;;;;;;;;;;5125793;27;20050;-65
2023/12/17 04:37:32;;;;;;;9.20;4.72;;;;;;;;;;5124137;27;20072;-65
2023/12/17 04:39:58;;;;;;;11.35;5.25;;;;;;;;;;5125739;27;20031;-65
2023/12/17 04:42:25;;;;;;;9.63;4.88;;;;;;;;;;5124041;27;20494;-66
2023/12/17 04:44:51;;;;;;;11.57;5.63;;;;;;;;;;5124799;27;20065;-66
2023/12/17 04:47:17;;;;;;;7.28;4.50;;;;;;;;;;5123349;27;20051;-65
2023/12/17 04:49:43;;;;;;;11.90;6.07;;;;;;;;;;5125165;27;20088;-66
2023/12/17 04:52:09;;;;;;;7.00;4.63;;;;;;;;;;5123485;27;20405;-67
2023/12/17 04:54:35;;;;;;;9.50;5.28;;;;;;;;;;5105109;27;20054;-66
2023/12/17 04:57:02;;;;;;;11.25;5.45;;;;;;;;;;5123450;27;20043;-66
2023/12/17 04:59:28;;;;;;;5.63;4.45;;;;;;;;;;5104353;27;20039;-67
2023/12/17 05:01:54;;;;;;;11.15;4.65;;;;;;;;;;5123997;27;20088;-66
2023/12/17 05:04:20;;;;;;;9.32;5.90;;;;;;;;;;5122646;27;20533;-66
2023/12/17 05:06:46;;;;;;;8.10;4.70;;;;;;;;;;5123354;27;20076;-66
2023/12/17 05:09:12;;;;;;;15.18;5.55;;;;;;;;;;5124098;27;20043;-65
2023/12/17 05:11:40;;;;;;;10.82;5.18;;;;;;;;;;5123609;27;20051;-65
2023/12/17 05:14:06;;;;;;;13.02;6.55;;;;;;;;;;5124046;27;20486;-65
2023/12/17 05:16:32;;;;;;;7.53;5.18;;;;;;;;;;5104747;27;20140;-65
2023/12/17 05:18:58;;;;;;;6.65;5.50;;;;;;;;;;5124595;27;20164;-65
2023/12/17 05:21:24;;;;;;;8.00;5.35;;;;;;;;;;5103909;27;20054;-65
2023/12/17 05:23:50;;;;;;;11.65;5.28;;;;;;;;;;5123777;27;20051;-65
2023/12/17 05:26:16;;;;;;;7.70;5.68;;;;;;;;;;5123863;27;20122;-66
2023/12/17 05:28:43;;;;;;;8.82;6.25;;;;;;;;;;5120951;27;20126;-66
2023/12/17 05:31:10;;;;;;;9.85;5.97;;;;;;;;;;5118179;27;20046;-66
2023/12/17 05:33:36;;;;;;;9.45;6.53;;;;;;;;;;5119871;27;20090;-66
2023/12/17 05:36:04;;;;;;;9.20;6.05;;;;;;;;;;5120512;27;20095;-66
2023/12/17 05:38:30;;;;;;;19.85;6.40;;;;;;;;;;5101593;27;20045;-65
2023/12/17 05:40:56;;;;;;;14.07;6.30;;;;;;;;;;5121122;27;20039;-66
2023/12/17 05:43:23;;;;;;;10.85;6.63;;;;;;;;;;5119473;27;20035;-66
2023/12/17 05:45:49;;;;;;;7.63;6.13;;;;;;;;;;5120282;27;20482;-66
2023/12/17 05:48:15;;;;;;;13.27;7.15;;;;;;;;;;5084651;28;20049;-66
2023/12/17 05:50:42;;;;;;;9.23;5.53;;;;;;;;;;5101617;27;20054;-66
2023/12/17 05:53:08;;;;;;;14.02;6.30;;;;;;;;;;5120211;27;20042;-65
2023/12/17 05:55:34;;;;;;;15.95;6.47;;;;;;;;;;5120313;27;20148;-65
2023/12/17 05:58:01;;;;;;;8.07;6.47;;;;;;;;;;5118776;28;20119;-65
2023/12/17 06:00:27;;;;;;;11.60;6.55;;;;;;;;;;5119244;28;20490;-65
2023/12/17 06:02:53;;;;;;;13.68;6.43;;;;;;;;;;5120735;28;20067;-65
2023/12/17 06:05:19;;;;;;;10.75;5.88;;;;;;;;;;5120156;28;20195;-66
2023/12/17 06:07:45;;;;;;;10.45;6.82;;;;;;;;;;5121379;28;20096;-66
2023/12/17 06:10:11;;;;;;;11.48;7.78;;;;;;;;;;5120336;28;20062;-67
2023/12/17 06:12:37;;;;;;;16.38;7.35;;;;;;;;;;5102222;28;20046;-67
2023/12/17 06:15:04;;;;;;;9.95;7.18;;;;;;;;;;5120007;28;20076;-66
2023/12/17 06:17:30;;;;;;;13.43;9.00;;;;;;;;;;5122624;27;20043;-66
2023/12/17 06:19:56;;;;;;;10.82;7.38;;;;;;;;;;5124317;27;20043;-66
2023/12/17 06:22:24;;;;;;;10.35;7.45;;;;;;;;;;5124321;27;20047;-66
2023/12/17 06:24:50;;;;;;;11.57;7.45;;;;;;;;;;5124504;27;20487;-65
2023/12/17 06:27:17;;;;;;;11.52;7.10;;;;;;;;;;5124681;27;20035;-65
2023/12/17 06:29:43;;;;;;;14.77;7.78;;;;;;;;;;5123993;27;20630;-66
2023/12/17 06:32:09;;;;;;;11.38;6.70;;;;;;;;;;5124526;27;20035;-65
2023/12/17 06:34:35;;;;;;;15.13;7.10;;;;;;;;;;5123753;27;20092;-65
2023/12/17 06:37:02;;;;;;;14.30;8.10;;;;;;;;;;5124918;27;20112;-67
2023/12/17 06:39:28;;;;;;;14.70;9.27;;;;;;;;;;5123387;27;20085;-66
2023/12/17 06:41:54;;;;;;;11.23;7.50;;;;;;;;;;5124469;27;20506;-66
2023/12/17 06:44:21;;;;;;;12.80;7.03;;;;;;;;;;5123602;27;20047;-67
2023/12/17 06:46:47;;;;;;;15.82;8.52;;;;;;;;;;5087890;27;20231;-66
2023/12/17 06:49:13;;;;;;;12.90;8.98;;;;;;;;;;5104606;27;20047;-67
2023/12/17 06:51:40;;;;;;;20.17;9.82;;;;;;;;;;5123205;27;20521;-66
2023/12/17 06:54:08;;;;;;;10.95;7.75;;;;;;;;;;5123111;27;20126;-66
2023/12/17 06:56:34;;;;;;;11.15;7.35;;;;;;;;;;5124237;27;20039;-66
2023/12/17 06:59:02;;;;;;;14.50;8.43;;;;;;;;;;5103792;27;20049;-66
2023/12/17 07:01:29;;;;;;;15.23;7.97;;;;;;;;;;5087072;27;20455;-66
2023/12/17 07:03:55;;;;;;;14.10;7.70;;;;;;;;;;5123765;27;20050;-66
2023/12/17 07:06:21;;;;;;;12.77;7.53;;;;;;;;;;5104489;27;20483;-66
2023/12/17 07:08:48;;;;;;;18.38;7.60;;;;;;;;;;5123370;27;20516;-66
2023/12/17 07:11:14;;;;;;;11.48;7.50;;;;;;;;;;5123713;27;20047;-67
2023/12/17 07:13:41;;;;;;;10.35;7.10;;;;;;;;;;5123368;27;20043;-66
2023/12/17 07:16:10;;;;;;;12.45;7.13;;;;;;;;;;5105531;27;20502;-66
2023/12/17 07:18:36;;;;;;;12.68;7.38;;;;;;;;;;5104902;27;20038;-65
2023/12/17 07:21:02;;;;;;;15.35;7.05;;;;;;;;;;5103568;27;20498;-66
2023/12/17 07:23:28;;;;;;;14.98;6.88;;;;;;;;;;5123005;27;20524;-66
2023/12/17 07:25:54;;;;;;;11.73;7.57;;;;;;;;;;5124391;27;20138;-66
2023/12/17 07:28:20;;;;;;;22.08;7.38;;;;;;;;;;5122244;27;20035;-65
2023/12/17 07:30:46;;;;;;;17.55;8.85;;;;;;;;;;5124103;27;20425;-65
2023/12/17 07:33:13;;;;;;;13.98;7.53;;;;;;;;;;5121551;27;20047;-65
2023/12/17 07:35:39;;;;;;;10.88;6.18;;;;;;;;;;5122854;27;21054;-66
2023/12/17 07:38:05;;;;;;;15.82;6.90;;;;;;;;;;5123488;27;20389;-66
2023/12/17 07:40:31;;;;;;;16.55;8.13;;;;;;;;;;5122332;27;20039;-66
2023/12/17 07:42:57;;;;;;;11.90;8.10;;;;;;;;;;5123360;27;20447;-65
2023/12/17 07:45:23;;;;;;;17.88;9.10;;;;;;;;;;5086549;27;20243;-65
2023/12/17 07:47:49;;;;;;;15.60;7.82;;;;;;;;;;5103484;27;20304;-65
2023/12/17 07:50:15;;;;;;;16.48;9.93;;;;;;;;;;5122468;27;20039;-66
2023/12/17 07:52:41;;;;;;;18.55;11.30;;;;;;;;;;5123142;27;20445;-66
2023/12/17 07:55:08;;;;;;;21.90;12.48;;;;;;;;;;5122322;27;20054;-66
2023/12/17 07:57:34;;;;;;;19.02;13.68;;;;;;;;;;5123573;27;20051;-66
2023/12/17 08:00:00;;;;;;;22.30;13.15;;;;;;;;;;5122812;27;20545;-66
2023/12/17 08:02:27;;;;;;;19.90;13.60;;;;;;;;;;5102884;27;20046;-66
2023/12/17 08:04:53;;;;;;;19.88;11.25;;;;;;;;;;5121413;27;20050;-66
2023/12/17 08:07:19;;;;;;;17.17;12.40;;;;;;;;;;5086115;27;20066;-68
2023/12/17 08:09:45;;;;;;;17.77;11.75;;;;;;;;;;5102022;27;20141;-66
2023/12/17 08:12:11;;;;;;;19.80;12.88;;;;;;;;;;5086727;27;20047;-66
2023/12/17 08:14:37;;;;;;;19.23;11.60;;;;;;;;;;5122833;27;20068;-66
2023/12/17 08:17:04;;;;;;;20.52;11.65;;;;;;;;;;5124448;27;20047;-66
2023/12/17 08:19:30;;;;;;;17.35;12.25;;;;;;;;;;5115997;27;20444;-66
2023/12/17 08:21:56;;;;;;;19.70;10.30;;;;;;;;;;5120626;27;20535;-66
2023/12/17 08:24:22;;;;;;;16.38;9.43;;;;;;;;;;5102484;27;20043;-65
2023/12/17 08:26:48;;;;;;;26.00;11.63;;;;;;;;;;5101603;27;20027;-66
2023/12/17 08:29:14;;;;;;;17.05;10.15;;;;;;;;;;5120616;27;20046;-66
2023/12/17 08:31:44;;;;;;;16.85;10.65;;;;;;;;;;5105279;27;20039;-65
2023/12/17 08:34:11;;;;;;;16.60;10.45;;;;;;;;;;5123560;27;20510;-65
2023/12/17 08:36:37;;;;;;;20.25;10.20;;;;;;;;;;5103851;27;20039;-67
2023/12/17 08:39:05;;;;;;;18.27;11.55;;;;;;;;;;5123799;27;20096;-66
2023/12/17 08:41:33;;;;;;;21.02;10.52;;;;;;;;;;5122008;27;20063;-66
2023/12/17 08:44:00;;;;;;;17.67;10.98;;;;;;;;;;5124148;27;20099;-66
2023/12/17 08:46:26;;;;;;;15.50;10.32;;;;;;;;;;5123491;27;20052;-65
2023/12/17 08:48:52;;;;;;;20.65;11.85;;;;;;;;;;5105131;27;20117;-66
2023/12/17 08:51:18;;;;;;;21.60;10.82;;;;;;;;;;5123666;27;20143;-65
2023/12/17 08:53:45;;;;;;;21.48;10.75;;;;;;;;;;5123396;27;20058;-65
2023/12/17 08:56:11;;;;;;;19.08;9.38;;;;;;;;;;5124061;27;20418;-66
2023/12/17 08:58:37;;;;;;;19.58;10.77;;;;;;;;;;5123984;27;20146;-66
2023/12/17 09:01:03;;;;;;;16.83;9.82;;;;;;;;;;5124312;27;20062;-66
2023/12/17 09:03:29;;;;;;;23.23;10.75;;;;;;;;;;5124356;27;20046;-66
2023/12/17 09:05:56;;;;;;;24.92;11.50;;;;;;;;;;5103383;27;20497;-65
2023/12/17 09:08:22;;;;;;;16.23;9.30;;;;;;;;;;5123952;27;20039;-65
2023/12/17 09:10:48;;;;;;;17.08;10.38;;;;;;;;;;5122390;27;20073;-66
2023/12/17 09:13:14;;;;;;;18.98;11.10;;;;;;;;;;5122698;27;20099;-66
2023/12/17 09:15:41;;;;;;;19.08;10.10;;;;;;;;;;5103138;27;20044;-66
2023/12/17 09:18:07;;;;;;;18.98;9.55;;;;;;;;;;5122925;27;20053;-66
2023/12/17 09:20:34;;;;;;;20.58;9.98;;;;;;;;;;5121014;27;20352;-66
2023/12/17 09:23:00;;;;;;;17.23;9.90;;;;;;;;;;5123532;27;20062;-66
2023/12/17 09:25:26;;;;;;;15.68;10.20;;;;;;;;;;5123402;27;20039;-66
2023/12/17 09:27:52;;;;;;;17.88;9.02;;;;;;;;;;5122920;27;20118;-66
2023/12/17 09:30:19;;;;;;;16.67;9.98;;;;;;;;;;5121896;27;20125;-65
2023/12/17 09:32:45;;;;;;;21.58;10.50;;;;;;;;;;5123059;27;20046;-65
2023/12/17 09:35:11;;;;;;;19.80;10.52;;;;;;;;;;5122511;27;20410;-66
2023/12/17 09:37:38;;;;;;;18.42;9.77;;;;;;;;;;5123074;27;20129;-66
2023/12/17 09:40:05;;;;;;;17.35;10.35;;;;;;;;;;5123376;27;20042;-66
2023/12/17 09:42:32;;;;;;;16.88;9.43;;;;;;;;;;5103818;27;20047;-66
2023/12/17 09:44:59;;;;;;;20.50;10.27;;;;;;;;;;5122998;27;20039;-66
2023/12/17 09:47:25;;;;;;;23.63;10.02;;;;;;;;;;5122777;27;20122;-66
2023/12/17 09:49:51;;;;;;;17.48;9.40;;;;;;;;;;5123170;27;20035;-66
2023/12/17 09:52:19;;;;;;;17.23;10.00;;;;;;;;;;5103293;28;20035;-66
2023/12/17 09:54:51;;;;;;;19.30;10.18;;;;;;;;;;5103643;28;20035;-66
2023/12/17 09:57:17;;;;;;;18.02;10.32;;;;;;;;;;5121915;27;20043;-66
2023/12/17 09:59:45;;;;;;;16.98;10.57;;;;;;;;;;5121775;28;20538;-66
2023/12/17 10:02:17;;;;;;;22.40;10.57;;;;;;;;;;5123549;28;20039;-67
2023/12/17 10:04:43;;;;;;;15.52;10.43;;;;;;;;;;5123382;28;20047;-66
2023/12/17 10:07:09;;;;;;;20.80;10.40;;;;;;;;;;5122189;28;20043;-66
2023/12/17 10:09:35;;;;;;;22.02;10.05;;;;;;;;;;5123308;28;20031;-65
2023/12/17 10:12:02;;;;;;;18.55;9.65;;;;;;;;;;5122363;27;20522;-66
2023/12/17 10:14:30;;;;;;;16.92;10.13;;;;;;;;;;5123171;28;20035;-65
2023/12/17 10:16:56;;;;;;;21.20;10.27;;;;;;;;;;5103957;28;20095;-67
2023/12/17 10:19:23;;;;;;;18.50;10.52;;;;;;;;;;5122250;28;20054;-65
2023/12/17 10:21:49;;;;;;;17.80;11.32;;;;;;;;;;5122234;28;20043;-65
2023/12/17 10:24:15;;;;;;;17.77;9.43;;;;;;;;;;5103010;28;20043;-66
2023/12/17 10:26:50;;;;;;;21.17;10.82;;;;;;;;;;5123237;28;20031;-65
2023/12/17 10:29:18;;;;;;;24.73;11.30;;;;;;;;;;5122130;28;20454;-65
2023/12/17 10:31:44;;;;;;;16.20;11.35;;;;;;;;;;5123624;28;20104;-66
2023/12/17 10:34:15;;;;;;;27.83;13.52;;;;;;;;;;5122485;28;20084;-66
2023/12/17 10:36:41;;;;;;;21.13;12.65;;;;;;;;;;5122692;28;20049;-65
2023/12/17 10:39:08;;;;;;;20.60;11.90;;;;;;;;;;5122462;28;20042;-66
2023/12/17 10:41:35;;;;;;;28.58;12.98;;;;;;;;;;5123204;28;20525;-66
2023/12/17 10:44:02;;;;;;;24.65;11.98;;;;;;;;;;5103638;28;20133;-66
2023/12/17 10:46:29;;;;;;;21.10;11.77;;;;;;;;;;5123085;28;20043;-66
2023/12/17 10:48:55;;;;;;;26.33;13.85;;;;;;;;;;5122962;28;20038;-65
2023/12/17 10:51:23;;;;;;;20.60;13.95;;;;;;;;;;5122039;28;20095;-67
2023/12/17 10:53:49;;;;;;;24.98;12.93;;;;;;;;;;5122622;28;20447;-67
2023/12/17 10:56:16;;;;;;;22.27;13.30;;;;;;;;;;5123515;28;20078;-65
2023/12/17 10:58:43;;;;;;;20.40;12.07;;;;;;;;;;5122268;28;20131;-65
2023/12/17 11:01:09;;;;;;;21.92;11.82;;;;;;;;;;5122666;28;20076;-64
2023/12/17 11:03:36;;;;;;;21.23;10.90;;;;;;;;;;5124279;27;20118;-65
2023/12/17 11:06:04;;;;;;;24.05;12.63;;;;;;;;;;5126004;27;20042;-65
2023/12/17 11:08:31;;;;;;;22.55;11.27;;;;;;;;;;5124634;27;20071;-65
2023/12/17 11:10:58;;;;;;;22.83;13.25;;;;;;;;;;5105123;27;20054;-65
2023/12/17 11:13:24;;;;;;;29.10;14.70;;;;;;;;;;5126070;27;20112;-65
2023/12/17 11:15:51;;;;;;;18.70;13.13;;;;;;;;;;5126488;27;20043;-66
2023/12/17 11:18:18;;;;;;;21.83;11.77;;;;;;;;;;5126556;27;20051;-64
2023/12/17 11:20:48;;;;;;;22.15;11.10;;;;;;;;;;5124879;27;20058;-65
2023/12/17 11:23:18;;;;;;;25.23;11.88;;;;;;;;;;5125909;27;20039;-66
2023/12/17 11:25:47;;;;;;;22.23;11.43;;;;;;;;;;5125132;27;20545;-66
2023/12/17 11:28:19;;;;;;;18.70;11.13;;;;;;;;;;5125097;27;20043;-66
2023/12/17 11:30:48;;;;;;;20.05;11.15;;;;;;;;;;5124606;27;20745;-65
2023/12/17 11:33:14;;;;;;;21.35;11.35;;;;;;;;;;5125079;27;20061;-66
2023/12/17 11:35:42;;;;;;;16.67;9.93;;;;;;;;;;5106114;27;20928;-65
2023/12/17 11:38:08;;;;;;;16.80;10.88;;;;;;;;;;5125044;27;20051;-67
2023/12/17 11:40:36;;;;;;;24.77;12.48;;;;;;;;;;5106363;27;20635;-66
2023/12/17 11:43:04;;;;;;;20.52;11.60;;;;;;;;;;5106215;27;20498;-65
2023/12/17 11:45:36;;;;;;;21.58;11.10;;;;;;;;;;5125017;27;20046;-65
2023/12/17 11:48:06;;;;;;;18.30;11.00;;;;;;;;;;5123856;27;20035;-66
2023/12/17 11:50:58;;;;;;;23.90;10.05;;;;;;;;;;5123975;27;20114;-66
2023/12/17 11:53:26;;;;;;;17.92;11.07;;;;;;;;;;5121718;27;20060;-66
2023/12/17 11:55:55;;;;;;;19.17;11.27;;;;;;;;;;5124940;27;20045;-66
2023/12/17 11:58:22;;;;;;;19.13;10.50;;;;;;;;;;5125519;27;20043;-66
2023/12/17 12:01:05;;;;;;;17.20;11.20;;;;;;;;;;5125150;27;20118;-66
2023/12/17 12:03:31;;;;;;;12.43;8.95;;;;;;;;;;5125061;27;20039;-66
2023/12/17 12:06:06;;;;;;;21.90;9.98;;;;;;;;;;5123301;27;20035;-66
2023/12/17 12:08:33;;;;;;;18.10;10.80;;;;;;;;;;5106887;27;20054;-66
2023/12/17 12:11:04;;;;;;;16.05;9.95;;;;;;;;;;5124118;27;20119;-66
2023/12/17 12:13:48;;;;;;;16.13;9.32;;;;;;;;;;5124749;27;21371;-66
2023/12/17 12:16:14;;;;;;;15.30;10.50;;;;;;;;;;5124767;27;20463;-66
2023/12/17 12:18:41;;;;;;;23.80;12.88;;;;;;;;;;5125094;27;20043;-66
2023/12/17 12:21:21;;;;;;;15.93;11.13;;;;;;;;;;5123683;27;20252;-66
2023/12/17 12:23:57;;;;;;;17.00;9.43;;;;;;;;;;5125423;27;21041;-66
2023/12/17 12:26:24;;;;;;;16.13;9.73;;;;;;;;;;5123662;27;20051;-67
2023/12/17 12:28:56;;;;;;;19.13;11.10;;;;;;;;;;5124661;27;20073;-66
2023/12/17 12:31:23;;;;;;;18.97;10.27;;;;;;;;;;5123257;27;20043;-66
2023/12/17 12:33:59;;;;;;;15.85;11.05;;;;;;;;;;5125070;27;20277;-66
2023/12/17 12:36:25;;;;;;;16.30;10.15;;;;;;;;;;5104018;27;21366;-65
2023/12/17 12:39:01;;;;;;;19.58;11.95;;;;;;;;;;5124780;27;20095;-67
2023/12/17 12:41:31;;;;;;;24.88;10.90;;;;;;;;;;5139584;27;20039;-66
2023/12/17 12:43:57;;;;;;;14.48;11.02;;;;;;;;;;5124521;27;20457;-66
2023/12/17 12:46:24;;;;;;;17.85;11.25;;;;;;;;;;5124157;27;20039;-66
2023/12/17 12:48:55;;;;;;;20.98;12.00;;;;;;;;;;5124543;27;20057;-66
2023/12/17 12:51:21;;;;;;;16.00;11.35;;;;;;;;;;5122914;27;20050;-66
2023/12/17 12:53:47;;;;;;;16.98;11.65;;;;;;;;;;5124472;27;20043;-66
2023/12/17 12:56:13;;;;;;;18.75;11.65;;;;;;;;;;5104682;27;20043;-66
2023/12/17 12:58:40;;;;;;;21.23;12.82;;;;;;;;;;5123626;27;20054;-66
2023/12/17 13:01:06;;;;;;;14.15;11.13;;;;;;;;;;5124172;27;20053;-67
2023/12/17 13:03:32;;;;;;;18.27;12.13;;;;;;;;;;5124452;27;20051;-66
2023/12/17 13:05:58;;;;;;;15.82;11.70;;;;;;;;;;5122366;27;20367;-66
2023/12/17 13:08:25;;;;;;;22.15;12.57;;;;;;;;;;5123221;27;20039;-65
2023/12/17 13:10:52;;;;;;;17.10;12.32;;;;;;;;;;5122064;27;20065;-65
2023/12/17 13:13:19;;;;;;;18.13;13.23;;;;;;;;;;5122977;27;20502;-66
2023/12/17 13:15:45;;;;;;;14.15;11.98;;;;;;;;;;5124193;27;20557;-66
2023/12/17 13:18:11;;;;;;;20.48;13.13;;;;;;;;;;5122649;27;20035;-66
2023/12/17 13:20:37;;;;;;;17.75;12.88;;;;;;;;;;5121325;27;20780;-66
2023/12/17 13:23:04;;;;;;;22.38;14.35;;;;;;;;;;5121810;27;20039;-67
2023/12/17 13:25:30;;;;;;;19.08;13.52;;;;;;;;;;5123170;27;20074;-66
2023/12/17 13:27:59;;;;;;;17.92;14.60;;;;;;;;;;5100607;27;20057;-66
2023/12/17 13:30:29;;;;;;;19.48;11.90;;;;;;;;;;5118226;27;20130;-66
2023/12/17 13:33:02;;;;;;;16.00;12.82;;;;;;;;;;5119876;27;20042;-66
2023/12/17 13:35:28;;;;;;;20.75;13.77;;;;;;;;;;5122000;27;20039;-66
2023/12/17 13:37:54;;;;;;;18.88;12.52;;;;;;;;;;5121414;27;20742;-66
2023/12/17 13:40:21;;;;;;;18.70;13.85;;;;;;;;;;5121474;27;20050;-66
2023/12/17 13:42:49;;;;;;;21.63;12.75;;;;;;;;;;5122729;27;20437;-67
2023/12/17 13:45:15;;;;;;;17.75;12.93;;;;;;;;;;5086664;27;20467;-67
2023/12/17 13:47:42;;;;;;;17.10;12.05;;;;;;;;;;5123233;27;20133;-67
2023/12/17 13:50:08;;;;;;;18.48;10.43;;;;;;;;;;5123501;27;20467;-66
2023/12/17 13:52:34;;;;;;;13.52;10.38;;;;;;;;;;5085775;28;20046;-65
2023/12/17 13:55:02;;;;;;;15.45;12.23;;;;;;;;;;5123514;27;20039;-66
2023/12/17 13:57:28;;;;;;;15.13;12.00;;;;;;;;;;5122128;27;20451;-67
2023/12/17 13:59:55;;;;;;;17.55;11.88;;;;;;;;;;5122922;28;20039;-67
2023/12/17 14:02:26;;;;;;;15.18;12.48;;;;;;;;;;5123000;28;20039;-65
2023/12/17 14:04:52;;;;;;;14.95;11.57;;;;;;;;;;5104514;28;20058;-65
2023/12/17 14:07:20;;;;;;;18.83;12.38;;;;;;;;;;5121832;27;20494;-65
2023/12/17 14:09:46;;;;;;;20.92;13.52;;;;;;;;;;5122933;27;20118;-67
2023/12/17 14:12:12;;;;;;;16.80;13.15;;;;;;;;;;5122389;27;20082;-65
2023/12/17 14:14:40;;;;;;;19.38;13.35;;;;;;;;;;5122476;28;20045;-67
2023/12/17 14:17:06;;;;;;;19.30;13.85;;;;;;;;;;5122769;27;20375;-67
2023/12/17 14:19:35;;;;;;;18.25;13.63;;;;;;;;;;5122607;28;20031;-67
2023/12/17 14:22:03;;;;;;;21.95;13.25;;;;;;;;;;5121220;28;20039;-66
2023/12/17 14:24:29;;;;;;;17.60;13.05;;;;;;;;;;5122361;28;20539;-66
2023/12/17 14:26:55;;;;;;;18.20;12.27;;;;;;;;;;5122321;28;21054;-67